sensor_id;sensor_type;location;lat;lon;timestamp;temperature;humidity
15888;DHT22;56032;51.324;12.376;2022-07-09T00:01:48;16.50;99.90
15888;DHT22;56032;51.324;12.376;2022-07-09T00:04:18;16.50;99.90
15888;DHT22;56032;51.324;12.376;2022-07-09T00:06:46;16.60;99.90
15888;DHT22;56032;51.324;12.376;2022-07-09T00:09:14;16.50;99.90
15888;DHT22;56032;51.324;12.376;2022-07-09T00:11:43;16.50;99.90
15888;DHT22;56032;51.324;12.376;2022-07-09T00:14:12;16.50;99.90
15888;DHT22;56032;51.324;12.376;2022-07-09T00:16:42;16.50;99.90
15888;DHT22;56032;51.324;12.376;2022-07-09T00:19:11;16.50;99.90
15888;DHT22;56032;51.324;12.376;2022-07-09T00:21:39;16.50;99.90
15888;DHT22;56032;51.324;12.376;2022-07-09T00:24:08;16.50;99.90
15888;DHT22;56032;51.324;12.376;2022-07-09T00:26:36;16.50;99.90
15888;DHT22;56032;51.324;12.376;2022-07-09T00:29:05;16.40;99.90
15888;DHT22;56032;51.324;12.376;2022-07-09T00:31:33;16.40;99.90
15888;DHT22;56032;51.324;12.376;2022-07-09T00:34:04;16.40;99.90
15888;DHT22;56032;51.324;12.376;2022-07-09T00:36:32;16.40;99.90
15888;DHT22;56032;51.324;12.376;2022-07-09T00:39:01;16.40;99.90
15888;DHT22;56032;51.324;12.376;2022-07-09T00:41:29;16.30;99.90
15888;DHT22;56032;51.324;12.376;2022-07-09T00:43:58;16.30;99.90
15888;DHT22;56032;51.324;12.376;2022-07-09T00:46:27;16.40;99.90
15888;DHT22;56032;51.324;12.376;2022-07-09T00:48:55;16.40;99.90
15888;DHT22;56032;51.324;12.376;2022-07-09T00:51:25;16.40;99.90
15888;DHT22;56032;51.324;12.376;2022-07-09T00:53:54;16.50;99.90
15888;DHT22;56032;51.324;12.376;2022-07-09T00:56:23;16.50;99.90
15888;DHT22;56032;51.324;12.376;2022-07-09T00:58:51;16.50;99.90
15888;DHT22;56032;51.324;12.376;2022-07-09T01:01:21;16.50;99.90
15888;DHT22;56032;51.324;12.376;2022-07-09T01:03:50;16.50;99.90
15888;DHT22;56032;51.324;12.376;2022-07-09T01:06:18;16.60;99.90
15888;DHT22;56032;51.324;12.376;2022-07-09T01:08:48;16.50;99.90
15888;DHT22;56032;51.324;12.376;2022-07-09T01:11:16;16.50;99.90
15888;DHT22;56032;51.324;12.376;2022-07-09T01:13:45;16.50;99.90
15888;DHT22;56032;51.324;12.376;2022-07-09T01:16:14;16.50;99.90
15888;DHT22;56032;51.324;12.376;2022-07-09T01:18:43;16.60;99.90
15888;DHT22;56032;51.324;12.376;2022-07-09T01:21:15;16.50;99.90
15888;DHT22;56032;51.324;12.376;2022-07-09T01:23:44;16.40;99.90
15888;DHT22;56032;51.324;12.376;2022-07-09T01:26:12;16.40;99.90
15888;DHT22;56032;51.324;12.376;2022-07-09T01:28:42;16.50;99.90
15888;DHT22;56032;51.324;12.376;2022-07-09T01:31:10;16.50;99.90
15888;DHT22;56032;51.324;12.376;2022-07-09T01:33:39;16.40;99.90
15888;DHT22;56032;51.324;12.376;2022-07-09T01:36:08;16.40;99.90
15888;DHT22;56032;51.324;12.376;2022-07-09T01:38:38;16.40;99.90
15888;DHT22;56032;51.324;12.376;2022-07-09T01:41:07;16.40;99.90
15888;DHT22;56032;51.324;12.376;2022-07-09T01:43:35;16.40;99.90
15888;DHT22;56032;51.324;12.376;2022-07-09T01:46:04;16.40;99.90
15888;DHT22;56032;51.324;12.376;2022-07-09T01:48:34;16.40;99.90
15888;DHT22;56032;51.324;12.376;2022-07-09T01:51:04;16.40;99.90
15888;DHT22;56032;51.324;12.376;2022-07-09T01:53:32;16.50;99.90
15888;DHT22;56032;51.324;12.376;2022-07-09T01:56:05;16.50;99.90
15888;DHT22;56032;51.324;12.376;2022-07-09T01:58:34;16.50;99.90
15888;DHT22;56032;51.324;12.376;2022-07-09T02:01:02;16.60;99.90
15888;DHT22;56032;51.324;12.376;2022-07-09T02:03:31;16.60;99.90
15888;DHT22;56032;51.324;12.376;2022-07-09T02:06:00;16.50;99.90
15888;DHT22;56032;51.324;12.376;2022-07-09T02:08:28;16.50;99.90
15888;DHT22;56032;51.324;12.376;2022-07-09T02:10:57;16.50;99.90
15888;DHT22;56032;51.324;12.376;2022-07-09T02:13:27;16.40;99.90
15888;DHT22;56032;51.324;12.376;2022-07-09T02:15:57;16.50;99.90
15888;DHT22;56032;51.324;12.376;2022-07-09T02:18:27;16.40;99.90
15888;DHT22;56032;51.324;12.376;2022-07-09T02:20:57;16.40;99.90
15888;DHT22;56032;51.324;12.376;2022-07-09T02:23:25;16.40;99.90
15888;DHT22;56032;51.324;12.376;2022-07-09T02:25:55;16.40;99.90
15888;DHT22;56032;51.324;12.376;2022-07-09T02:28:23;16.30;99.90
15888;DHT22;56032;51.324;12.376;2022-07-09T02:30:54;16.20;99.90
15888;DHT22;56032;51.324;12.376;2022-07-09T02:33:24;16.20;99.90
15888;DHT22;56032;51.324;12.376;2022-07-09T02:35:57;16.20;99.90
15888;DHT22;56032;51.324;12.376;2022-07-09T02:38:26;16.30;99.90
15888;DHT22;56032;51.324;12.376;2022-07-09T02:40:54;16.30;99.90
15888;DHT22;56032;51.324;12.376;2022-07-09T02:43:23;16.30;99.90
15888;DHT22;56032;51.324;12.376;2022-07-09T02:45:52;16.20;99.90
15888;DHT22;56032;51.324;12.376;2022-07-09T02:48:24;16.20;99.90
15888;DHT22;56032;51.324;12.376;2022-07-09T02:50:53;16.10;99.90
15888;DHT22;56032;51.324;12.376;2022-07-09T02:53:22;16.00;99.90
15888;DHT22;56032;51.324;12.376;2022-07-09T02:55:51;16.00;99.90
15888;DHT22;56032;51.324;12.376;2022-07-09T02:58:19;16.00;99.90
15888;DHT22;56032;51.324;12.376;2022-07-09T03:00:48;16.00;99.90
15888;DHT22;56032;51.324;12.376;2022-07-09T03:03:16;16.00;99.90
15888;DHT22;56032;51.324;12.376;2022-07-09T03:05:49;16.00;99.90
15888;DHT22;56032;51.324;12.376;2022-07-09T03:08:17;16.00;99.90
15888;DHT22;56032;51.324;12.376;2022-07-09T03:10:48;15.90;99.90
15888;DHT22;56032;51.324;12.376;2022-07-09T03:13:17;15.90;99.90
15888;DHT22;56032;51.324;12.376;2022-07-09T03:15:45;16.00;99.90
15888;DHT22;56032;51.324;12.376;2022-07-09T03:18:14;15.90;99.90
15888;DHT22;56032;51.324;12.376;2022-07-09T03:20:43;15.90;99.90
15888;DHT22;56032;51.324;12.376;2022-07-09T03:23:12;15.90;99.90
15888;DHT22;56032;51.324;12.376;2022-07-09T03:25:41;15.90;99.90
15888;DHT22;56032;51.324;12.376;2022-07-09T03:28:10;15.90;99.90
15888;DHT22;56032;51.324;12.376;2022-07-09T03:30:38;16.00;99.90
15888;DHT22;56032;51.324;12.376;2022-07-09T03:33:07;16.00;99.90
15888;DHT22;56032;51.324;12.376;2022-07-09T03:35:35;16.00;99.90
15888;DHT22;56032;51.324;12.376;2022-07-09T03:38:05;16.00;99.90
15888;DHT22;56032;51.324;12.376;2022-07-09T03:40:36;16.00;99.90
15888;DHT22;56032;51.324;12.376;2022-07-09T03:43:04;16.10;99.90
15888;DHT22;56032;51.324;12.376;2022-07-09T03:45:33;16.10;99.90
15888;DHT22;56032;51.324;12.376;2022-07-09T03:48:02;16.10;99.90
15888;DHT22;56032;51.324;12.376;2022-07-09T03:50:31;16.20;99.90
15888;DHT22;56032;51.324;12.376;2022-07-09T03:52:59;16.20;99.90
15888;DHT22;56032;51.324;12.376;2022-07-09T03:55:28;16.20;99.90
15888;DHT22;56032;51.324;12.376;2022-07-09T03:57:58;16.20;99.90
15888;DHT22;56032;51.324;12.376;2022-07-09T04:00:27;16.20;99.90
15888;DHT22;56032;51.324;12.376;2022-07-09T04:02:56;16.20;99.90
15888;DHT22;56032;51.324;12.376;2022-07-09T04:05:24;16.20;99.90
15888;DHT22;56032;51.324;12.376;2022-07-09T04:07:53;16.30;99.90
15888;DHT22;56032;51.324;12.376;2022-07-09T04:10:21;16.20;99.90
15888;DHT22;56032;51.324;12.376;2022-07-09T04:12:50;16.20;99.90
15888;DHT22;56032;51.324;12.376;2022-07-09T04:15:20;16.30;99.90
15888;DHT22;56032;51.324;12.376;2022-07-09T04:17:48;16.30;99.90
15888;DHT22;56032;51.324;12.376;2022-07-09T04:20:17;16.40;99.90
15888;DHT22;56032;51.324;12.376;2022-07-09T04:22:45;16.50;99.90
15888;DHT22;56032;51.324;12.376;2022-07-09T04:25:14;16.70;99.90
15888;DHT22;56032;51.324;12.376;2022-07-09T04:27:43;16.80;99.90
15888;DHT22;56032;51.324;12.376;2022-07-09T04:30:11;17.30;99.90
15888;DHT22;56032;51.324;12.376;2022-07-09T04:32:42;18.40;99.90
15888;DHT22;56032;51.324;12.376;2022-07-09T04:35:11;18.70;99.90
15888;DHT22;56032;51.324;12.376;2022-07-09T04:37:39;18.10;99.90
15888;DHT22;56032;51.324;12.376;2022-07-09T04:40:09;17.80;99.90
15888;DHT22;56032;51.324;12.376;2022-07-09T04:42:37;17.40;99.90
15888;DHT22;56032;51.324;12.376;2022-07-09T04:45:06;17.50;99.90
15888;DHT22;56032;51.324;12.376;2022-07-09T04:47:35;17.70;99.90
15888;DHT22;56032;51.324;12.376;2022-07-09T04:50:06;17.80;99.90
15888;DHT22;56032;51.324;12.376;2022-07-09T04:52:35;17.50;99.90
15888;DHT22;56032;51.324;12.376;2022-07-09T04:55:04;17.40;99.90
15888;DHT22;56032;51.324;12.376;2022-07-09T04:57:32;17.10;99.90
15888;DHT22;56032;51.324;12.376;2022-07-09T05:00:02;17.10;99.90
15888;DHT22;56032;51.324;12.376;2022-07-09T05:02:31;17.00;99.90
15888;DHT22;56032;51.324;12.376;2022-07-09T05:05:00;17.00;99.90
15888;DHT22;56032;51.324;12.376;2022-07-09T05:07:32;16.90;99.90
15888;DHT22;56032;51.324;12.376;2022-07-09T05:10:01;17.10;99.90
15888;DHT22;56032;51.324;12.376;2022-07-09T05:12:29;17.10;99.90
15888;DHT22;56032;51.324;12.376;2022-07-09T05:14:58;17.20;99.90
15888;DHT22;56032;51.324;12.376;2022-07-09T05:17:26;17.30;99.90
15888;DHT22;56032;51.324;12.376;2022-07-09T05:19:55;17.20;99.90
15888;DHT22;56032;51.324;12.376;2022-07-09T05:22:23;17.40;99.90
15888;DHT22;56032;51.324;12.376;2022-07-09T05:24:53;17.50;99.90
15888;DHT22;56032;51.324;12.376;2022-07-09T05:27:22;17.50;99.90
15888;DHT22;56032;51.324;12.376;2022-07-09T05:29:50;17.40;99.90
15888;DHT22;56032;51.324;12.376;2022-07-09T05:32:18;17.40;99.90
15888;DHT22;56032;51.324;12.376;2022-07-09T05:34:47;17.40;99.90
15888;DHT22;56032;51.324;12.376;2022-07-09T05:37:16;17.40;99.90
15888;DHT22;56032;51.324;12.376;2022-07-09T05:39:44;17.40;99.90
15888;DHT22;56032;51.324;12.376;2022-07-09T05:42:14;17.40;99.90
15888;DHT22;56032;51.324;12.376;2022-07-09T05:44:42;17.40;99.90
15888;DHT22;56032;51.324;12.376;2022-07-09T05:47:11;17.20;99.90
15888;DHT22;56032;51.324;12.376;2022-07-09T05:49:39;17.40;99.90
15888;DHT22;56032;51.324;12.376;2022-07-09T05:52:07;17.60;99.90
15888;DHT22;56032;51.324;12.376;2022-07-09T05:54:36;17.50;99.90
15888;DHT22;56032;51.324;12.376;2022-07-09T05:57:05;17.40;99.90
15888;DHT22;56032;51.324;12.376;2022-07-09T05:59:34;17.30;99.90
15888;DHT22;56032;51.324;12.376;2022-07-09T06:02:03;17.30;99.90
15888;DHT22;56032;51.324;12.376;2022-07-09T06:04:33;17.30;99.90
15888;DHT22;56032;51.324;12.376;2022-07-09T06:07:02;17.20;99.90
15888;DHT22;56032;51.324;12.376;2022-07-09T06:09:30;17.20;99.90
15888;DHT22;56032;51.324;12.376;2022-07-09T06:12:00;17.10;99.90
15888;DHT22;56032;51.324;12.376;2022-07-09T06:14:28;16.90;99.90
15888;DHT22;56032;51.324;12.376;2022-07-09T06:16:58;16.90;99.90
15888;DHT22;56032;51.324;12.376;2022-07-09T06:19:32;17.00;99.90
15888;DHT22;56032;51.324;12.376;2022-07-09T06:22:01;17.00;99.90
15888;DHT22;56032;51.324;12.376;2022-07-09T06:24:29;16.90;99.90
15888;DHT22;56032;51.324;12.376;2022-07-09T06:26:58;17.00;99.90
15888;DHT22;56032;51.324;12.376;2022-07-09T06:29:26;17.00;99.90
15888;DHT22;56032;51.324;12.376;2022-07-09T06:31:55;17.10;99.90
15888;DHT22;56032;51.324;12.376;2022-07-09T06:34:28;17.20;99.90
15888;DHT22;56032;51.324;12.376;2022-07-09T06:36:56;17.30;99.90
15888;DHT22;56032;51.324;12.376;2022-07-09T06:39:25;17.30;99.90
15888;DHT22;56032;51.324;12.376;2022-07-09T06:42:11;17.30;99.90
15888;DHT22;56032;51.324;12.376;2022-07-09T06:44:40;17.30;99.90
15888;DHT22;56032;51.324;12.376;2022-07-09T06:47:09;17.40;99.90
15888;DHT22;56032;51.324;12.376;2022-07-09T06:49:40;17.50;99.90
15888;DHT22;56032;51.324;12.376;2022-07-09T06:52:09;17.50;99.90
15888;DHT22;56032;51.324;12.376;2022-07-09T06:54:38;17.40;99.90
15888;DHT22;56032;51.324;12.376;2022-07-09T06:57:06;17.50;99.90
15888;DHT22;56032;51.324;12.376;2022-07-09T06:59:36;17.60;99.90
15888;DHT22;56032;51.324;12.376;2022-07-09T07:02:04;17.60;99.90
15888;DHT22;56032;51.324;12.376;2022-07-09T07:04:33;17.80;99.90
15888;DHT22;56032;51.324;12.376;2022-07-09T07:07:04;18.10;99.90
15888;DHT22;56032;51.324;12.376;2022-07-09T07:09:33;18.10;99.90
15888;DHT22;56032;51.324;12.376;2022-07-09T07:12:02;18.20;99.90
15888;DHT22;56032;51.324;12.376;2022-07-09T07:14:30;18.30;99.90
15888;DHT22;56032;51.324;12.376;2022-07-09T07:17:00;18.20;99.90
15888;DHT22;56032;51.324;12.376;2022-07-09T07:19:29;18.10;99.90
15888;DHT22;56032;51.324;12.376;2022-07-09T07:21:57;17.90;99.90
15888;DHT22;56032;51.324;12.376;2022-07-09T07:24:27;17.70;99.90
15888;DHT22;56032;51.324;12.376;2022-07-09T07:26:57;17.70;99.90
15888;DHT22;56032;51.324;12.376;2022-07-09T07:29:25;17.90;99.90
15888;DHT22;56032;51.324;12.376;2022-07-09T07:31:54;17.80;99.90
15888;DHT22;56032;51.324;12.376;2022-07-09T07:34:23;17.80;99.90
15888;DHT22;56032;51.324;12.376;2022-07-09T07:36:52;17.70;99.90
15888;DHT22;56032;51.324;12.376;2022-07-09T07:39:22;17.70;99.90
15888;DHT22;56032;51.324;12.376;2022-07-09T07:41:53;17.80;99.90
15888;DHT22;56032;51.324;12.376;2022-07-09T07:44:21;17.70;99.90
15888;DHT22;56032;51.324;12.376;2022-07-09T07:46:51;17.60;99.90
15888;DHT22;56032;51.324;12.376;2022-07-09T07:49:19;17.60;99.90
15888;DHT22;56032;51.324;12.376;2022-07-09T07:51:48;17.70;99.90
15888;DHT22;56032;51.324;12.376;2022-07-09T07:54:16;17.80;99.90
15888;DHT22;56032;51.324;12.376;2022-07-09T07:56:46;17.80;99.90
15888;DHT22;56032;51.324;12.376;2022-07-09T07:59:16;17.80;99.90
15888;DHT22;56032;51.324;12.376;2022-07-09T08:01:44;17.90;99.90
15888;DHT22;56032;51.324;12.376;2022-07-09T08:04:13;18.00;99.90
15888;DHT22;56032;51.324;12.376;2022-07-09T08:06:42;18.10;99.90
15888;DHT22;56032;51.324;12.376;2022-07-09T08:09:10;18.30;99.90
15888;DHT22;56032;51.324;12.376;2022-07-09T08:11:39;18.20;99.90
15888;DHT22;56032;51.324;12.376;2022-07-09T08:14:07;18.10;99.90
15888;DHT22;56032;51.324;12.376;2022-07-09T08:16:38;18.20;99.90
15888;DHT22;56032;51.324;12.376;2022-07-09T08:19:06;18.40;99.90
15888;DHT22;56032;51.324;12.376;2022-07-09T08:21:35;18.70;99.90
15888;DHT22;56032;51.324;12.376;2022-07-09T08:24:04;18.80;99.90
15888;DHT22;56032;51.324;12.376;2022-07-09T08:26:33;18.70;99.90
15888;DHT22;56032;51.324;12.376;2022-07-09T08:29:01;18.80;99.90
15888;DHT22;56032;51.324;12.376;2022-07-09T08:31:30;19.00;99.90
15888;DHT22;56032;51.324;12.376;2022-07-09T08:34:00;19.00;99.90
15888;DHT22;56032;51.324;12.376;2022-07-09T08:36:28;18.60;99.90
15888;DHT22;56032;51.324;12.376;2022-07-09T08:38:57;18.50;99.90
15888;DHT22;56032;51.324;12.376;2022-07-09T08:41:28;18.50;99.90
15888;DHT22;56032;51.324;12.376;2022-07-09T08:43:56;18.70;99.90
15888;DHT22;56032;51.324;12.376;2022-07-09T08:46:25;18.50;99.90
15888;DHT22;56032;51.324;12.376;2022-07-09T08:48:54;18.50;99.90
15888;DHT22;56032;51.324;12.376;2022-07-09T08:51:26;18.50;99.90
15888;DHT22;56032;51.324;12.376;2022-07-09T08:53:55;18.30;99.90
15888;DHT22;56032;51.324;12.376;2022-07-09T08:56:24;18.50;99.90
15888;DHT22;56032;51.324;12.376;2022-07-09T08:58:52;18.50;99.90
15888;DHT22;56032;51.324;12.376;2022-07-09T09:01:21;18.50;99.90
15888;DHT22;56032;51.324;12.376;2022-07-09T09:03:49;18.70;99.90
15888;DHT22;56032;51.324;12.376;2022-07-09T09:06:20;18.60;99.90
15888;DHT22;56032;51.324;12.376;2022-07-09T09:08:53;18.80;99.90
15888;DHT22;56032;51.324;12.376;2022-07-09T09:11:22;18.90;99.90
15888;DHT22;56032;51.324;12.376;2022-07-09T09:13:51;19.00;99.90
15888;DHT22;56032;51.324;12.376;2022-07-09T09:16:20;19.30;99.90
15888;DHT22;56032;51.324;12.376;2022-07-09T09:18:51;19.30;99.90
15888;DHT22;56032;51.324;12.376;2022-07-09T09:21:22;19.20;99.90
15888;DHT22;56032;51.324;12.376;2022-07-09T09:23:53;19.30;99.90
15888;DHT22;56032;51.324;12.376;2022-07-09T09:26:23;19.20;99.90
15888;DHT22;56032;51.324;12.376;2022-07-09T09:28:52;19.00;99.90
15888;DHT22;56032;51.324;12.376;2022-07-09T09:31:23;19.00;99.90
15888;DHT22;56032;51.324;12.376;2022-07-09T09:33:52;19.00;99.90
15888;DHT22;56032;51.324;12.376;2022-07-09T09:36:28;19.20;99.90
15888;DHT22;56032;51.324;12.376;2022-07-09T09:39:17;19.40;99.90
15888;DHT22;56032;51.324;12.376;2022-07-09T09:41:46;19.30;99.90
15888;DHT22;56032;51.324;12.376;2022-07-09T09:44:15;19.40;99.90
15888;DHT22;56032;51.324;12.376;2022-07-09T09:46:45;19.70;99.90
15888;DHT22;56032;51.324;12.376;2022-07-09T09:49:14;19.80;99.90
15888;DHT22;56032;51.324;12.376;2022-07-09T09:51:46;19.90;99.90
15888;DHT22;56032;51.324;12.376;2022-07-09T09:54:20;20.10;99.90
15888;DHT22;56032;51.324;12.376;2022-07-09T09:56:49;20.20;99.90
15888;DHT22;56032;51.324;12.376;2022-07-09T09:59:18;20.30;99.90
15888;DHT22;56032;51.324;12.376;2022-07-09T10:01:46;20.30;99.90
15888;DHT22;56032;51.324;12.376;2022-07-09T10:04:17;20.00;99.90
15888;DHT22;56032;51.324;12.376;2022-07-09T10:06:48;19.80;99.90
15888;DHT22;56032;51.324;12.376;2022-07-09T10:09:17;20.00;99.90
15888;DHT22;56032;51.324;12.376;2022-07-09T10:11:48;20.10;99.90
15888;DHT22;56032;51.324;12.376;2022-07-09T10:14:17;20.10;99.90
15888;DHT22;56032;51.324;12.376;2022-07-09T10:16:46;20.40;99.90
15888;DHT22;56032;51.324;12.376;2022-07-09T10:19:25;20.80;99.90
15888;DHT22;56032;51.324;12.376;2022-07-09T10:21:56;20.80;99.90
15888;DHT22;56032;51.324;12.376;2022-07-09T10:24:25;20.90;99.90
15888;DHT22;56032;51.324;12.376;2022-07-09T10:27:03;20.90;99.90
15888;DHT22;56032;51.324;12.376;2022-07-09T10:29:32;20.90;99.90
15888;DHT22;56032;51.324;12.376;2022-07-09T10:32:02;21.20;99.90
15888;DHT22;56032;51.324;12.376;2022-07-09T10:34:42;21.20;99.90
15888;DHT22;56032;51.324;12.376;2022-07-09T10:37:12;21.10;99.90
15888;DHT22;56032;51.324;12.376;2022-07-09T10:39:40;21.10;99.90
15888;DHT22;56032;51.324;12.376;2022-07-09T10:42:18;21.10;99.90
15888;DHT22;56032;51.324;12.376;2022-07-09T10:44:47;21.10;99.90
15888;DHT22;56032;51.324;12.376;2022-07-09T10:47:18;21.20;99.90
15888;DHT22;56032;51.324;12.376;2022-07-09T10:49:46;21.10;99.90
15888;DHT22;56032;51.324;12.376;2022-07-09T10:52:15;20.90;99.90
15888;DHT22;56032;51.324;12.376;2022-07-09T10:54:46;20.80;99.90
15888;DHT22;56032;51.324;12.376;2022-07-09T10:57:15;20.60;99.90
15888;DHT22;56032;51.324;12.376;2022-07-09T10:59:48;20.70;99.90
15888;DHT22;56032;51.324;12.376;2022-07-09T11:02:17;20.70;99.90
15888;DHT22;56032;51.324;12.376;2022-07-09T11:04:47;20.90;99.90
15888;DHT22;56032;51.324;12.376;2022-07-09T11:07:20;21.10;99.90
15888;DHT22;56032;51.324;12.376;2022-07-09T11:09:50;21.30;99.90
15888;DHT22;56032;51.324;12.376;2022-07-09T11:12:20;21.50;99.90
15888;DHT22;56032;51.324;12.376;2022-07-09T11:14:51;21.50;99.90
15888;DHT22;56032;51.324;12.376;2022-07-09T11:17:21;21.50;99.90
15888;DHT22;56032;51.324;12.376;2022-07-09T11:19:49;21.40;99.90
15888;DHT22;56032;51.324;12.376;2022-07-09T11:22:18;21.30;99.90
15888;DHT22;56032;51.324;12.376;2022-07-09T11:24:46;21.10;99.90
15888;DHT22;56032;51.324;12.376;2022-07-09T11:27:15;21.10;99.90
15888;DHT22;56032;51.324;12.376;2022-07-09T11:29:46;21.00;99.90
15888;DHT22;56032;51.324;12.376;2022-07-09T11:32:16;20.80;99.90
15888;DHT22;56032;51.324;12.376;2022-07-09T11:34:51;20.90;99.90
15888;DHT22;56032;51.324;12.376;2022-07-09T11:37:22;20.70;99.90
15888;DHT22;56032;51.324;12.376;2022-07-09T11:39:52;20.70;99.90
15888;DHT22;56032;51.324;12.376;2022-07-09T11:42:21;20.50;99.90
15888;DHT22;56032;51.324;12.376;2022-07-09T11:44:53;20.40;99.90
15888;DHT22;56032;51.324;12.376;2022-07-09T11:47:32;20.30;99.90
15888;DHT22;56032;51.324;12.376;2022-07-09T11:50:04;20.20;99.90
15888;DHT22;56032;51.324;12.376;2022-07-09T11:52:33;20.30;99.90
15888;DHT22;56032;51.324;12.376;2022-07-09T11:55:09;20.30;99.90
15888;DHT22;56032;51.324;12.376;2022-07-09T11:57:38;20.40;99.90
15888;DHT22;56032;51.324;12.376;2022-07-09T12:00:07;20.50;99.90
15888;DHT22;56032;51.324;12.376;2022-07-09T12:02:37;20.60;99.90
15888;DHT22;56032;51.324;12.376;2022-07-09T12:05:07;20.70;99.90
15888;DHT22;56032;51.324;12.376;2022-07-09T12:07:36;20.70;99.90
15888;DHT22;56032;51.324;12.376;2022-07-09T12:10:05;20.70;99.90
15888;DHT22;56032;51.324;12.376;2022-07-09T12:12:34;20.70;99.90
15888;DHT22;56032;51.324;12.376;2022-07-09T12:15:03;20.60;99.90
15888;DHT22;56032;51.324;12.376;2022-07-09T12:17:34;20.60;99.90
15888;DHT22;56032;51.324;12.376;2022-07-09T12:20:07;20.70;99.90
15888;DHT22;56032;51.324;12.376;2022-07-09T12:22:36;20.70;99.90
15888;DHT22;56032;51.324;12.376;2022-07-09T12:25:06;20.60;99.90
15888;DHT22;56032;51.324;12.376;2022-07-09T12:27:35;20.70;99.90
15888;DHT22;56032;51.324;12.376;2022-07-09T12:30:04;20.80;99.90
15888;DHT22;56032;51.324;12.376;2022-07-09T12:32:33;20.80;99.90
15888;DHT22;56032;51.324;12.376;2022-07-09T12:35:03;20.90;99.90
15888;DHT22;56032;51.324;12.376;2022-07-09T12:37:33;21.10;99.90
15888;DHT22;56032;51.324;12.376;2022-07-09T12:40:02;21.20;99.90
15888;DHT22;56032;51.324;12.376;2022-07-09T12:42:31;21.30;99.90
15888;DHT22;56032;51.324;12.376;2022-07-09T12:45:00;21.40;99.90
15888;DHT22;56032;51.324;12.376;2022-07-09T12:47:36;21.50;99.90
15888;DHT22;56032;51.324;12.376;2022-07-09T12:50:04;21.70;99.90
15888;DHT22;56032;51.324;12.376;2022-07-09T12:52:35;21.80;99.90
15888;DHT22;56032;51.324;12.376;2022-07-09T12:55:04;21.80;99.90
15888;DHT22;56032;51.324;12.376;2022-07-09T12:57:33;21.70;99.90
15888;DHT22;56032;51.324;12.376;2022-07-09T13:00:02;21.50;99.90
15888;DHT22;56032;51.324;12.376;2022-07-09T13:02:31;21.40;99.90
15888;DHT22;56032;51.324;12.376;2022-07-09T13:05:00;21.20;99.90
15888;DHT22;56032;51.324;12.376;2022-07-09T13:07:28;21.10;99.90
15888;DHT22;56032;51.324;12.376;2022-07-09T13:09:58;20.70;99.90
15888;DHT22;56032;51.324;12.376;2022-07-09T13:12:27;20.30;99.90
15888;DHT22;56032;51.324;12.376;2022-07-09T13:14:55;20.20;99.90
15888;DHT22;56032;51.324;12.376;2022-07-09T13:17:25;20.20;99.90
15888;DHT22;56032;51.324;12.376;2022-07-09T13:19:58;20.10;99.90
15888;DHT22;56032;51.324;12.376;2022-07-09T13:22:27;19.90;99.90
15888;DHT22;56032;51.324;12.376;2022-07-09T13:24:55;20.00;99.90
15888;DHT22;56032;51.324;12.376;2022-07-09T13:27:26;19.90;99.90
15888;DHT22;56032;51.324;12.376;2022-07-09T13:30:15;19.70;99.90
15888;DHT22;56032;51.324;12.376;2022-07-09T13:32:48;19.40;99.90
15888;DHT22;56032;51.324;12.376;2022-07-09T13:35:16;19.20;99.90
15888;DHT22;56032;51.324;12.376;2022-07-09T13:37:45;19.10;99.90
15888;DHT22;56032;51.324;12.376;2022-07-09T13:40:13;19.20;99.90
15888;DHT22;56032;51.324;12.376;2022-07-09T13:42:42;19.30;99.90
15888;DHT22;56032;51.324;12.376;2022-07-09T13:45:11;19.20;99.90
15888;DHT22;56032;51.324;12.376;2022-07-09T13:47:41;19.20;99.90
15888;DHT22;56032;51.324;12.376;2022-07-09T13:50:10;19.20;99.90
15888;DHT22;56032;51.324;12.376;2022-07-09T13:52:45;19.20;99.90
15888;DHT22;56032;51.324;12.376;2022-07-09T13:55:14;19.40;99.90
15888;DHT22;56032;51.324;12.376;2022-07-09T13:57:42;19.40;99.90
15888;DHT22;56032;51.324;12.376;2022-07-09T14:00:11;19.70;99.90
15888;DHT22;56032;51.324;12.376;2022-07-09T14:02:41;19.80;99.90
15888;DHT22;56032;51.324;12.376;2022-07-09T14:05:10;19.70;99.90
15888;DHT22;56032;51.324;12.376;2022-07-09T14:07:39;19.90;99.90
15888;DHT22;56032;51.324;12.376;2022-07-09T14:10:07;20.10;99.90
15888;DHT22;56032;51.324;12.376;2022-07-09T14:12:36;20.30;99.90
15888;DHT22;56032;51.324;12.376;2022-07-09T14:15:05;20.30;99.90
15888;DHT22;56032;51.324;12.376;2022-07-09T14:17:34;20.40;99.90
15888;DHT22;56032;51.324;12.376;2022-07-09T14:20:05;20.20;99.90
15888;DHT22;56032;51.324;12.376;2022-07-09T14:22:34;20.20;99.90
15888;DHT22;56032;51.324;12.376;2022-07-09T14:25:03;20.00;99.90
15888;DHT22;56032;51.324;12.376;2022-07-09T14:27:32;20.00;99.90
15888;DHT22;56032;51.324;12.376;2022-07-09T14:30:03;20.00;99.90
15888;DHT22;56032;51.324;12.376;2022-07-09T14:32:31;20.00;99.90
15888;DHT22;56032;51.324;12.376;2022-07-09T14:35:00;20.10;99.90
15888;DHT22;56032;51.324;12.376;2022-07-09T14:37:32;20.20;99.90
15888;DHT22;56032;51.324;12.376;2022-07-09T14:40:01;20.30;99.90
15888;DHT22;56032;51.324;12.376;2022-07-09T14:42:29;20.40;99.90
15888;DHT22;56032;51.324;12.376;2022-07-09T14:44:58;20.60;99.90
15888;DHT22;56032;51.324;12.376;2022-07-09T14:47:26;20.80;99.90
15888;DHT22;56032;51.324;12.376;2022-07-09T14:49:55;20.90;99.90
15888;DHT22;56032;51.324;12.376;2022-07-09T14:52:23;20.90;99.90
15888;DHT22;56032;51.324;12.376;2022-07-09T14:54:55;21.10;99.90
15888;DHT22;56032;51.324;12.376;2022-07-09T14:57:23;21.10;99.90
15888;DHT22;56032;51.324;12.376;2022-07-09T14:59:52;21.10;99.90
15888;DHT22;56032;51.324;12.376;2022-07-09T15:02:20;21.10;99.90
15888;DHT22;56032;51.324;12.376;2022-07-09T15:04:49;21.20;99.90
15888;DHT22;56032;51.324;12.376;2022-07-09T15:07:17;21.30;99.90
15888;DHT22;56032;51.324;12.376;2022-07-09T15:09:46;21.50;99.90
15888;DHT22;56032;51.324;12.376;2022-07-09T15:12:17;21.60;99.90
15888;DHT22;56032;51.324;12.376;2022-07-09T15:14:45;21.70;99.90
15888;DHT22;56032;51.324;12.376;2022-07-09T15:17:14;21.60;99.90
15888;DHT22;56032;51.324;12.376;2022-07-09T15:19:43;21.70;99.90
15888;DHT22;56032;51.324;12.376;2022-07-09T15:22:11;21.80;99.90
15888;DHT22;56032;51.324;12.376;2022-07-09T15:24:40;21.90;99.90
15888;DHT22;56032;51.324;12.376;2022-07-09T15:27:09;22.10;99.90
15888;DHT22;56032;51.324;12.376;2022-07-09T15:29:40;22.10;99.90